sensor_id;sensor_type;location;lat;lon;timestamp;temperature;humidity
25154;DHT22;47555;51.038;6.280;2023-03-24T00:01:46;12.60;99.90
25154;DHT22;47555;51.038;6.280;2023-03-24T00:04:11;12.60;99.90
25154;DHT22;47555;51.038;6.280;2023-03-24T00:06:38;12.70;99.90
25154;DHT22;47555;51.038;6.280;2023-03-24T00:09:04;12.70;99.90
25154;DHT22;47555;51.038;6.280;2023-03-24T00:11:31;12.70;99.90
25154;DHT22;47555;51.038;6.280;2023-03-24T00:13:59;12.80;99.90
25154;DHT22;47555;51.038;6.280;2023-03-24T00:16:24;12.70;99.90
25154;DHT22;47555;51.038;6.280;2023-03-24T00:18:51;12.80;99.90
25154;DHT22;47555;51.038;6.280;2023-03-24T00:21:18;12.80;99.90
25154;DHT22;47555;51.038;6.280;2023-03-24T00:23:46;12.80;99.90
25154;DHT22;47555;51.038;6.280;2023-03-24T00:26:15;12.80;99.90
25154;DHT22;47555;51.038;6.280;2023-03-24T00:28:46;12.80;99.90
25154;DHT22;47555;51.038;6.280;2023-03-24T00:31:13;12.80;99.90
25154;DHT22;47555;51.038;6.280;2023-03-24T00:33:40;12.80;99.90
25154;DHT22;47555;51.038;6.280;2023-03-24T00:36:08;12.80;99.90
25154;DHT22;47555;51.038;6.280;2023-03-24T00:38:37;12.80;99.90
25154;DHT22;47555;51.038;6.280;2023-03-24T00:41:05;12.80;99.90
25154;DHT22;47555;51.038;6.280;2023-03-24T00:43:33;12.80;99.90
25154;DHT22;47555;51.038;6.280;2023-03-24T00:46:07;12.80;99.90
25154;DHT22;47555;51.038;6.280;2023-03-24T00:48:35;12.70;99.90
25154;DHT22;47555;51.038;6.280;2023-03-24T00:51:04;12.70;99.90
25154;DHT22;47555;51.038;6.280;2023-03-24T00:53:30;12.70;99.90
25154;DHT22;47555;51.038;6.280;2023-03-24T00:55:56;12.70;99.90
25154;DHT22;47555;51.038;6.280;2023-03-24T00:58:23;12.60;99.90
25154;DHT22;47555;51.038;6.280;2023-03-24T01:00:51;12.60;99.90
25154;DHT22;47555;51.038;6.280;2023-03-24T01:03:18;12.60;99.90
25154;DHT22;47555;51.038;6.280;2023-03-24T01:05:47;12.60;99.90
25154;DHT22;47555;51.038;6.280;2023-03-24T01:08:15;12.60;99.90
25154;DHT22;47555;51.038;6.280;2023-03-24T01:10:45;12.60;99.90
25154;DHT22;47555;51.038;6.280;2023-03-24T01:13:25;12.60;99.90
25154;DHT22;47555;51.038;6.280;2023-03-24T01:15:51;12.60;99.90
25154;DHT22;47555;51.038;6.280;2023-03-24T01:18:17;12.60;99.90
25154;DHT22;47555;51.038;6.280;2023-03-24T01:20:45;12.60;99.90
25154;DHT22;47555;51.038;6.280;2023-03-24T01:23:17;12.60;99.90
25154;DHT22;47555;51.038;6.280;2023-03-24T01:25:47;12.60;99.90
25154;DHT22;47555;51.038;6.280;2023-03-24T01:28:15;12.60;99.90
25154;DHT22;47555;51.038;6.280;2023-03-24T01:30:42;12.60;99.90
25154;DHT22;47555;51.038;6.280;2023-03-24T01:33:08;12.60;99.90
25154;DHT22;47555;51.038;6.280;2023-03-24T01:35:34;12.70;99.90
25154;DHT22;47555;51.038;6.280;2023-03-24T01:38:04;12.70;99.90
25154;DHT22;47555;51.038;6.280;2023-03-24T01:40:32;12.70;99.90
25154;DHT22;47555;51.038;6.280;2023-03-24T01:42:58;12.70;99.90
25154;DHT22;47555;51.038;6.280;2023-03-24T01:45:44;12.60;99.90
25154;DHT22;47555;51.038;6.280;2023-03-24T01:48:36;12.70;99.90
25154;DHT22;47555;51.038;6.280;2023-03-24T01:51:31;12.70;99.90
25154;DHT22;47555;51.038;6.280;2023-03-24T01:54:03;12.70;99.90
25154;DHT22;47555;51.038;6.280;2023-03-24T01:56:33;12.70;99.90
25154;DHT22;47555;51.038;6.280;2023-03-24T01:59:03;12.70;99.90
25154;DHT22;47555;51.038;6.280;2023-03-24T02:01:30;12.70;99.90
25154;DHT22;47555;51.038;6.280;2023-03-24T02:03:57;12.80;99.90
25154;DHT22;47555;51.038;6.280;2023-03-24T02:06:23;12.80;99.90
25154;DHT22;47555;51.038;6.280;2023-03-24T02:08:54;12.80;99.90
25154;DHT22;47555;51.038;6.280;2023-03-24T02:11:21;12.90;99.90
25154;DHT22;47555;51.038;6.280;2023-03-24T02:13:47;12.90;99.90
25154;DHT22;47555;51.038;6.280;2023-03-24T02:28:03;13.20;99.90
25154;DHT22;47555;51.038;6.280;2023-03-24T02:41:31;13.60;99.20
25154;DHT22;47555;51.038;6.280;2023-03-24T02:46:48;13.70;97.60
25154;DHT22;47555;51.038;6.280;2023-03-24T02:49:39;13.70;97.70
25154;DHT22;47555;51.038;6.280;2023-03-24T02:52:17;13.80;97.40
25154;DHT22;47555;51.038;6.280;2023-03-24T02:54:51;13.80;97.70
25154;DHT22;47555;51.038;6.280;2023-03-24T02:57:42;13.80;97.00
25154;DHT22;47555;51.038;6.280;2023-03-24T03:00:20;13.80;97.00
25154;DHT22;47555;51.038;6.280;2023-03-24T03:02:56;13.80;96.40
25154;DHT22;47555;51.038;6.280;2023-03-24T03:05:28;13.90;96.00
25154;DHT22;47555;51.038;6.280;2023-03-24T03:07:57;13.90;96.40
25154;DHT22;47555;51.038;6.280;2023-03-24T03:10:29;13.90;95.60
25154;DHT22;47555;51.038;6.280;2023-03-24T03:12:58;13.90;96.40
25154;DHT22;47555;51.038;6.280;2023-03-24T03:15:34;13.90;96.30
25154;DHT22;47555;51.038;6.280;2023-03-24T03:18:07;13.90;96.40
25154;DHT22;47555;51.038;6.280;2023-03-24T03:20:38;13.90;96.00
25154;DHT22;47555;51.038;6.280;2023-03-24T03:23:10;13.90;96.30
25154;DHT22;47555;51.038;6.280;2023-03-24T03:25:42;13.90;96.60
25154;DHT22;47555;51.038;6.280;2023-03-24T03:28:12;13.90;97.40
25154;DHT22;47555;51.038;6.280;2023-03-24T03:30:41;14.00;96.40
25154;DHT22;47555;51.038;6.280;2023-03-24T03:33:20;13.90;96.70
25154;DHT22;47555;51.038;6.280;2023-03-24T03:35:57;13.90;98.10
25154;DHT22;47555;51.038;6.280;2023-03-24T03:38:53;13.90;98.90
25154;DHT22;47555;51.038;6.280;2023-03-24T03:41:20;13.80;98.50
25154;DHT22;47555;51.038;6.280;2023-03-24T03:43:47;13.80;98.90
25154;DHT22;47555;51.038;6.280;2023-03-24T03:46:14;13.80;98.90
25154;DHT22;47555;51.038;6.280;2023-03-24T03:48:40;13.70;99.20
25154;DHT22;47555;51.038;6.280;2023-03-24T03:51:07;13.70;99.80
25154;DHT22;47555;51.038;6.280;2023-03-24T03:56:21;13.60;99.90
25154;DHT22;47555;51.038;6.280;2023-03-24T03:58:47;13.50;99.90
25154;DHT22;47555;51.038;6.280;2023-03-24T04:01:20;13.40;99.90
25154;DHT22;47555;51.038;6.280;2023-03-24T04:06:53;13.20;99.90
25154;DHT22;47555;51.038;6.280;2023-03-24T04:20:47;12.60;99.90
25154;DHT22;47555;51.038;6.280;2023-03-24T04:23:27;12.60;99.90
25154;DHT22;47555;51.038;6.280;2023-03-24T04:26:15;12.50;99.90
25154;DHT22;47555;51.038;6.280;2023-03-24T04:31:33;12.40;99.90
25154;DHT22;47555;51.038;6.280;2023-03-24T04:36:57;12.30;99.90
25154;DHT22;47555;51.038;6.280;2023-03-24T04:39:29;12.30;99.90
25154;DHT22;47555;51.038;6.280;2023-03-24T04:42:02;12.30;99.90
25154;DHT22;47555;51.038;6.280;2023-03-24T04:44:29;12.20;99.90
25154;DHT22;47555;51.038;6.280;2023-03-24T04:46:58;12.10;99.90
25154;DHT22;47555;51.038;6.280;2023-03-24T04:49:24;12.10;99.90
25154;DHT22;47555;51.038;6.280;2023-03-24T04:51:51;12.10;99.90
25154;DHT22;47555;51.038;6.280;2023-03-24T04:54:18;12.00;99.90
25154;DHT22;47555;51.038;6.280;2023-03-24T04:56:50;11.90;99.90
25154;DHT22;47555;51.038;6.280;2023-03-24T04:59:17;11.80;99.90
25154;DHT22;47555;51.038;6.280;2023-03-24T05:01:43;11.70;99.90
25154;DHT22;47555;51.038;6.280;2023-03-24T05:04:19;11.70;99.90
25154;DHT22;47555;51.038;6.280;2023-03-24T05:06:45;11.60;99.90
25154;DHT22;47555;51.038;6.280;2023-03-24T05:09:15;11.60;99.90
25154;DHT22;47555;51.038;6.280;2023-03-24T05:11:42;11.50;99.90
25154;DHT22;47555;51.038;6.280;2023-03-24T05:14:08;11.30;99.90
25154;DHT22;47555;51.038;6.280;2023-03-24T05:16:34;11.20;99.90
25154;DHT22;47555;51.038;6.280;2023-03-24T05:19:00;11.00;99.90
25154;DHT22;47555;51.038;6.280;2023-03-24T05:21:26;10.90;99.90
25154;DHT22;47555;51.038;6.280;2023-03-24T05:23:52;10.70;99.90
25154;DHT22;47555;51.038;6.280;2023-03-24T05:26:18;10.60;99.90
25154;DHT22;47555;51.038;6.280;2023-03-24T05:28:43;10.60;99.90
25154;DHT22;47555;51.038;6.280;2023-03-24T05:31:09;10.50;99.90
25154;DHT22;47555;51.038;6.280;2023-03-24T05:33:35;10.40;99.90
25154;DHT22;47555;51.038;6.280;2023-03-24T05:36:01;10.30;99.90
25154;DHT22;47555;51.038;6.280;2023-03-24T05:38:26;10.20;99.90
25154;DHT22;47555;51.038;6.280;2023-03-24T05:40:58;10.20;99.90
25154;DHT22;47555;51.038;6.280;2023-03-24T05:43:24;10.20;99.90
25154;DHT22;47555;51.038;6.280;2023-03-24T05:45:50;10.20;99.90
25154;DHT22;47555;51.038;6.280;2023-03-24T05:48:15;10.20;99.90
25154;DHT22;47555;51.038;6.280;2023-03-24T05:50:41;10.20;99.90
25154;DHT22;47555;51.038;6.280;2023-03-24T05:53:06;10.20;99.90
25154;DHT22;47555;51.038;6.280;2023-03-24T05:55:32;10.20;99.90
25154;DHT22;47555;51.038;6.280;2023-03-24T05:57:58;10.10;99.90
25154;DHT22;47555;51.038;6.280;2023-03-24T06:00:27;10.10;99.90
25154;DHT22;47555;51.038;6.280;2023-03-24T06:02:52;10.10;99.90
25154;DHT22;47555;51.038;6.280;2023-03-24T06:05:18;10.10;99.90
25154;DHT22;47555;51.038;6.280;2023-03-24T06:07:44;10.10;99.90
25154;DHT22;47555;51.038;6.280;2023-03-24T06:10:11;10.10;99.90
25154;DHT22;47555;51.038;6.280;2023-03-24T06:12:39;10.10;99.90
25154;DHT22;47555;51.038;6.280;2023-03-24T06:15:05;10.00;99.90
25154;DHT22;47555;51.038;6.280;2023-03-24T06:17:31;10.00;99.90
25154;DHT22;47555;51.038;6.280;2023-03-24T06:19:57;9.90;99.90
25154;DHT22;47555;51.038;6.280;2023-03-24T06:22:28;9.90;99.90
25154;DHT22;47555;51.038;6.280;2023-03-24T06:24:54;9.80;99.90
25154;DHT22;47555;51.038;6.280;2023-03-24T06:27:23;9.70;99.90
25154;DHT22;47555;51.038;6.280;2023-03-24T06:29:51;9.70;99.90
25154;DHT22;47555;51.038;6.280;2023-03-24T06:32:19;9.70;99.90
25154;DHT22;47555;51.038;6.280;2023-03-24T06:34:45;9.70;99.90
25154;DHT22;47555;51.038;6.280;2023-03-24T06:37:11;9.70;99.90
25154;DHT22;47555;51.038;6.280;2023-03-24T06:39:36;9.70;99.90
25154;DHT22;47555;51.038;6.280;2023-03-24T06:42:02;9.70;99.90
25154;DHT22;47555;51.038;6.280;2023-03-24T06:44:28;9.80;99.90
25154;DHT22;47555;51.038;6.280;2023-03-24T06:46:53;9.80;99.90
25154;DHT22;47555;51.038;6.280;2023-03-24T06:49:19;9.80;99.90
25154;DHT22;47555;51.038;6.280;2023-03-24T06:51:44;9.90;99.50
25154;DHT22;47555;51.038;6.280;2023-03-24T06:54:10;9.90;99.70
25154;DHT22;47555;51.038;6.280;2023-03-24T06:56:36;9.90;99.60
25154;DHT22;47555;51.038;6.280;2023-03-24T06:59:01;9.90;99.00
25154;DHT22;47555;51.038;6.280;2023-03-24T07:01:27;10.00;99.10
25154;DHT22;47555;51.038;6.280;2023-03-24T07:03:52;10.00;98.90
25154;DHT22;47555;51.038;6.280;2023-03-24T07:06:18;10.10;99.40
25154;DHT22;47555;51.038;6.280;2023-03-24T07:08:44;10.20;99.50
25154;DHT22;47555;51.038;6.280;2023-03-24T07:11:10;10.30;98.90
25154;DHT22;47555;51.038;6.280;2023-03-24T07:13:36;10.40;99.40
25154;DHT22;47555;51.038;6.280;2023-03-24T07:16:01;10.50;99.90
25154;DHT22;47555;51.038;6.280;2023-03-24T07:18:27;10.80;99.90
25154;DHT22;47555;51.038;6.280;2023-03-24T07:20:53;11.00;99.20
25154;DHT22;47555;51.038;6.280;2023-03-24T07:23:18;11.30;97.40
25154;DHT22;47555;51.038;6.280;2023-03-24T07:25:44;11.50;94.70
25154;DHT22;47555;51.038;6.280;2023-03-24T07:28:10;11.60;93.20
25154;DHT22;47555;51.038;6.280;2023-03-24T07:30:36;11.80;94.70
25154;DHT22;47555;51.038;6.280;2023-03-24T07:33:05;12.10;92.60
25154;DHT22;47555;51.038;6.280;2023-03-24T07:35:31;12.10;91.30
25154;DHT22;47555;51.038;6.280;2023-03-24T07:37:57;12.30;91.80
25154;DHT22;47555;51.038;6.280;2023-03-24T07:40:23;12.50;88.50
25154;DHT22;47555;51.038;6.280;2023-03-24T07:42:49;12.70;85.10
25154;DHT22;47555;51.038;6.280;2023-03-24T07:45:15;12.70;87.60
25154;DHT22;47555;51.038;6.280;2023-03-24T07:47:43;12.90;84.20
25154;DHT22;47555;51.038;6.280;2023-03-24T07:50:09;12.80;83.00
25154;DHT22;47555;51.038;6.280;2023-03-24T07:52:40;12.70;83.40
25154;DHT22;47555;51.038;6.280;2023-03-24T07:55:07;12.70;85.20
25154;DHT22;47555;51.038;6.280;2023-03-24T07:57:34;12.90;81.90
25154;DHT22;47555;51.038;6.280;2023-03-24T08:00:03;13.00;84.20
25154;DHT22;47555;51.038;6.280;2023-03-24T08:02:35;13.20;85.30
25154;DHT22;47555;51.038;6.280;2023-03-24T08:05:00;13.30;79.40
25154;DHT22;47555;51.038;6.280;2023-03-24T08:07:30;13.30;76.70
25154;DHT22;47555;51.038;6.280;2023-03-24T08:09:55;13.20;78.60
25154;DHT22;47555;51.038;6.280;2023-03-24T08:12:21;13.10;79.00
25154;DHT22;47555;51.038;6.280;2023-03-24T08:14:46;13.00;80.50
25154;DHT22;47555;51.038;6.280;2023-03-24T08:17:12;12.90;80.90
25154;DHT22;47555;51.038;6.280;2023-03-24T08:19:37;12.70;82.00
25154;DHT22;47555;51.038;6.280;2023-03-24T08:22:03;12.60;83.30
25154;DHT22;47555;51.038;6.280;2023-03-24T08:24:28;12.50;84.20
25154;DHT22;47555;51.038;6.280;2023-03-24T08:26:54;12.40;82.20
25154;DHT22;47555;51.038;6.280;2023-03-24T08:29:23;12.40;80.90
25154;DHT22;47555;51.038;6.280;2023-03-24T08:31:48;12.40;83.70
25154;DHT22;47555;51.038;6.280;2023-03-24T08:34:14;12.40;84.90
25154;DHT22;47555;51.038;6.280;2023-03-24T08:36:39;12.50;83.00
25154;DHT22;47555;51.038;6.280;2023-03-24T08:39:06;12.40;80.90
25154;DHT22;47555;51.038;6.280;2023-03-24T08:41:34;12.40;82.20
25154;DHT22;47555;51.038;6.280;2023-03-24T08:44:00;12.40;82.20
25154;DHT22;47555;51.038;6.280;2023-03-24T08:46:28;12.50;82.10
25154;DHT22;47555;51.038;6.280;2023-03-24T08:48:54;12.30;80.10
25154;DHT22;47555;51.038;6.280;2023-03-24T08:51:22;12.30;83.20
25154;DHT22;47555;51.038;6.280;2023-03-24T08:53:47;12.30;82.50
25154;DHT22;47555;51.038;6.280;2023-03-24T08:56:13;12.30;83.90
25154;DHT22;47555;51.038;6.280;2023-03-24T08:58:39;12.30;83.80
25154;DHT22;47555;51.038;6.280;2023-03-24T09:01:05;12.40;80.90
25154;DHT22;47555;51.038;6.280;2023-03-24T09:03:30;12.30;79.00
25154;DHT22;47555;51.038;6.280;2023-03-24T09:05:56;12.20;80.60
25154;DHT22;47555;51.038;6.280;2023-03-24T09:08:22;12.20;83.00
25154;DHT22;47555;51.038;6.280;2023-03-24T09:10:49;12.40;83.90
25154;DHT22;47555;51.038;6.280;2023-03-24T09:13:16;12.50;77.90
25154;DHT22;47555;51.038;6.280;2023-03-24T09:15:50;12.50;80.10
25154;DHT22;47555;51.038;6.280;2023-03-24T09:18:17;12.60;81.40
25154;DHT22;47555;51.038;6.280;2023-03-24T09:20:43;12.60;80.00
25154;DHT22;47555;51.038;6.280;2023-03-24T09:23:09;12.60;77.20
25154;DHT22;47555;51.038;6.280;2023-03-24T09:25:35;12.50;77.90
25154;DHT22;47555;51.038;6.280;2023-03-24T09:28:01;12.50;79.70
25154;DHT22;47555;51.038;6.280;2023-03-24T09:30:27;12.50;81.00
25154;DHT22;47555;51.038;6.280;2023-03-24T09:32:52;12.60;83.70
25154;DHT22;47555;51.038;6.280;2023-03-24T09:35:18;12.70;82.00
25154;DHT22;47555;51.038;6.280;2023-03-24T09:37:47;12.80;79.50
25154;DHT22;47555;51.038;6.280;2023-03-24T09:40:18;12.90;83.10
25154;DHT22;47555;51.038;6.280;2023-03-24T09:42:51;13.20;72.80
25154;DHT22;47555;51.038;6.280;2023-03-24T09:45:19;13.40;75.90
25154;DHT22;47555;51.038;6.280;2023-03-24T09:47:53;13.60;69.80
25154;DHT22;47555;51.038;6.280;2023-03-24T09:52:54;13.60;71.60
25154;DHT22;47555;51.038;6.280;2023-03-24T09:55:24;13.70;72.00
25154;DHT22;47555;51.038;6.280;2023-03-24T09:57:51;13.80;71.70
25154;DHT22;47555;51.038;6.280;2023-03-24T10:00:21;14.10;73.80
25154;DHT22;47555;51.038;6.280;2023-03-24T10:02:49;14.30;73.00
25154;DHT22;47555;51.038;6.280;2023-03-24T10:05:44;14.60;71.70
25154;DHT22;47555;51.038;6.280;2023-03-24T10:11:17;15.20;62.60
25154;DHT22;47555;51.038;6.280;2023-03-24T10:19:17;15.00;58.10
25154;DHT22;47555;51.038;6.280;2023-03-24T10:22:21;14.70;58.20
25154;DHT22;47555;51.038;6.280;2023-03-24T10:24:54;14.70;63.20
25154;DHT22;47555;51.038;6.280;2023-03-24T10:27:35;14.60;63.40
25154;DHT22;47555;51.038;6.280;2023-03-24T10:30:34;14.50;62.00
25154;DHT22;47555;51.038;6.280;2023-03-24T10:33:01;14.40;59.80
25154;DHT22;47555;51.038;6.280;2023-03-24T10:35:30;14.20;64.50
25154;DHT22;47555;51.038;6.280;2023-03-24T10:37:59;14.10;64.90
25154;DHT22;47555;51.038;6.280;2023-03-24T10:40:30;14.00;65.90
25154;DHT22;47555;51.038;6.280;2023-03-24T10:42:57;14.00;65.20
25154;DHT22;47555;51.038;6.280;2023-03-24T10:45:29;14.00;61.20
25154;DHT22;47555;51.038;6.280;2023-03-24T10:47:59;14.10;69.60
25154;DHT22;47555;51.038;6.280;2023-03-24T10:50:27;14.30;67.70
25154;DHT22;47555;51.038;6.280;2023-03-24T10:52:53;14.50;68.60
25154;DHT22;47555;51.038;6.280;2023-03-24T10:55:22;14.60;66.40
25154;DHT22;47555;51.038;6.280;2023-03-24T10:57:52;14.70;62.90
25154;DHT22;47555;51.038;6.280;2023-03-24T11:00:27;14.60;57.40
25154;DHT22;47555;51.038;6.280;2023-03-24T11:03:13;14.70;57.00
25154;DHT22;47555;51.038;6.280;2023-03-24T11:05:40;14.70;52.90
25154;DHT22;47555;51.038;6.280;2023-03-24T11:10:42;15.10;54.10
25154;DHT22;47555;51.038;6.280;2023-03-24T11:13:37;15.10;51.30
25154;DHT22;47555;51.038;6.280;2023-03-24T11:16:14;15.00;52.00
25154;DHT22;47555;51.038;6.280;2023-03-24T11:19:04;14.80;53.30
25154;DHT22;47555;51.038;6.280;2023-03-24T11:21:37;14.80;56.60
25154;DHT22;47555;51.038;6.280;2023-03-24T11:24:10;15.00;56.00
25154;DHT22;47555;51.038;6.280;2023-03-24T11:26:42;15.40;57.30
25154;DHT22;47555;51.038;6.280;2023-03-24T11:29:18;15.80;52.40
25154;DHT22;47555;51.038;6.280;2023-03-24T11:31:54;15.90;52.40
25154;DHT22;47555;51.038;6.280;2023-03-24T11:34:28;15.90;49.00
25154;DHT22;47555;51.038;6.280;2023-03-24T11:39:32;15.60;49.70
25154;DHT22;47555;51.038;6.280;2023-03-24T11:42:15;15.40;47.70
25154;DHT22;47555;51.038;6.280;2023-03-24T11:44:51;15.40;55.10
25154;DHT22;47555;51.038;6.280;2023-03-24T11:58:35;16.10;47.00
25154;DHT22;47555;51.038;6.280;2023-03-24T12:06:44;16.40;51.50
25154;DHT22;47555;51.038;6.280;2023-03-24T12:09:31;16.50;49.00
25154;DHT22;47555;51.038;6.280;2023-03-24T12:18:32;16.00;48.80
25154;DHT22;47555;51.038;6.280;2023-03-24T12:23:24;16.00;48.40
25154;DHT22;47555;51.038;6.280;2023-03-24T12:26:12;15.90;45.00
25154;DHT22;47555;51.038;6.280;2023-03-24T12:28:53;15.70;46.10
25154;DHT22;47555;51.038;6.280;2023-03-24T12:31:35;15.50;44.60
25154;DHT22;47555;51.038;6.280;2023-03-24T12:37:03;15.50;45.60
25154;DHT22;47555;51.038;6.280;2023-03-24T12:39:33;15.50;47.40
25154;DHT22;47555;51.038;6.280;2023-03-24T12:42:12;15.50;43.00
25154;DHT22;47555;51.038;6.280;2023-03-24T12:45:09;15.60;42.90
25154;DHT22;47555;51.038;6.280;2023-03-24T12:47:58;15.90;46.70
25154;DHT22;47555;51.038;6.280;2023-03-24T12:50:50;15.80;41.50
25154;DHT22;47555;51.038;6.280;2023-03-24T12:56:15;16.10;41.90
25154;DHT22;47555;51.038;6.280;2023-03-24T12:58:49;16.10;40.60
25154;DHT22;47555;51.038;6.280;2023-03-24T13:01:26;16.10;40.40
25154;DHT22;47555;51.038;6.280;2023-03-24T13:04:11;16.30;44.70
25154;DHT22;47555;51.038;6.280;2023-03-24T13:07:00;16.60;40.30
25154;DHT22;47555;51.038;6.280;2023-03-24T13:12:14;16.60;40.30
25154;DHT22;47555;51.038;6.280;2023-03-24T13:17:35;17.00;40.20
25154;DHT22;47555;51.038;6.280;2023-03-24T13:20:04;16.80;37.20
25154;DHT22;47555;51.038;6.280;2023-03-24T13:22:33;16.40;39.40
25154;DHT22;47555;51.038;6.280;2023-03-24T13:25:01;16.10;38.50
25154;DHT22;47555;51.038;6.280;2023-03-24T13:27:32;15.60;39.60
25154;DHT22;47555;51.038;6.280;2023-03-24T13:30:18;15.30;47.90
25154;DHT22;47555;51.038;6.280;2023-03-24T13:33:35;15.00;57.20
25154;DHT22;47555;51.038;6.280;2023-03-24T13:38:39;15.50;59.00
25154;DHT22;47555;51.038;6.280;2023-03-24T13:41:11;15.70;59.20
25154;DHT22;47555;51.038;6.280;2023-03-24T13:43:49;15.90;50.30
25154;DHT22;47555;51.038;6.280;2023-03-24T13:46:15;16.10;45.80
25154;DHT22;47555;51.038;6.280;2023-03-24T13:48:49;16.20;44.80
25154;DHT22;47555;51.038;6.280;2023-03-24T13:51:28;16.30;47.10
25154;DHT22;47555;51.038;6.280;2023-03-24T13:54:02;16.40;42.40
25154;DHT22;47555;51.038;6.280;2023-03-24T13:56:33;16.40;44.40
25154;DHT22;47555;51.038;6.280;2023-03-24T14:15:44;15.80;40.40
25154;DHT22;47555;51.038;6.280;2023-03-24T14:26:07;15.10;53.70
25154;DHT22;47555;51.038;6.280;2023-03-24T14:28:40;15.30;53.90
25154;DHT22;47555;51.038;6.280;2023-03-24T14:31:30;15.40;54.80
25154;DHT22;47555;51.038;6.280;2023-03-24T14:33:58;15.60;53.10
25154;DHT22;47555;51.038;6.280;2023-03-24T14:36:44;15.70;50.80
25154;DHT22;47555;51.038;6.280;2023-03-24T14:39:39;15.80;52.20
25154;DHT22;47555;51.038;6.280;2023-03-24T14:45:03;16.10;45.00
25154;DHT22;47555;51.038;6.280;2023-03-24T14:47:31;16.10;49.40
25154;DHT22;47555;51.038;6.280;2023-03-24T14:50:00;16.10;46.50
25154;DHT22;47555;51.038;6.280;2023-03-24T14:52:36;16.20;44.40
25154;DHT22;47555;51.038;6.280;2023-03-24T14:55:08;16.20;47.10
25154;DHT22;47555;51.038;6.280;2023-03-24T14:57:40;16.10;44.80
25154;DHT22;47555;51.038;6.280;2023-03-24T15:00:07;15.90;43.70
25154;DHT22;47555;51.038;6.280;2023-03-24T15:02:43;15.70;44.00
25154;DHT22;47555;51.038;6.280;2023-03-24T15:08:09;15.10;45.80
25154;DHT22;47555;51.038;6.280;2023-03-24T15:10:51;14.90;45.30
25154;DHT22;47555;51.038;6.280;2023-03-24T15:15:57;14.50;55.80
25154;DHT22;47555;51.038;6.280;2023-03-24T15:18:24;14.20;64.50
25154;DHT22;47555;51.038;6.280;2023-03-24T15:20:50;13.70;68.20
25154;DHT22;47555;51.038;6.280;2023-03-24T15:23:18;13.20;76.90
25154;DHT22;47555;51.038;6.280;2023-03-24T15:25:44;12.80;82.20
25154;DHT22;47555;51.038;6.280;2023-03-24T15:28:24;12.40;86.30
25154;DHT22;47555;51.038;6.280;2023-03-24T15:30:51;12.00;89.10
25154;DHT22;47555;51.038;6.280;2023-03-24T15:33:17;11.60;90.40
25154;DHT22;47555;51.038;6.280;2023-03-24T15:35:45;11.50;92.60
25154;DHT22;47555;51.038;6.280;2023-03-24T15:38:18;11.40;94.90
25154;DHT22;47555;51.038;6.280;2023-03-24T15:43:24;11.20;97.50
25154;DHT22;47555;51.038;6.280;2023-03-24T15:45:54;11.10;97.90
25154;DHT22;47555;51.038;6.280;2023-03-24T15:48:23;11.00;98.60
25154;DHT22;47555;51.038;6.280;2023-03-24T15:51:01;11.00;98.40
25154;DHT22;47555;51.038;6.280;2023-03-24T15:54:16;10.90;99.00
25154;DHT22;47555;51.038;6.280;2023-03-24T15:56:43;10.80;94.10
25154;DHT22;47555;51.038;6.280;2023-03-24T16:01:35;10.50;94.50
25154;DHT22;47555;51.038;6.280;2023-03-24T16:04:17;10.30;96.30
25154;DHT22;47555;51.038;6.280;2023-03-24T16:06:51;10.10;97.60
25154;DHT22;47555;51.038;6.280;2023-03-24T16:09:19;10.10;99.90
25154;DHT22;47555;51.038;6.280;2023-03-24T16:11:46;10.00;99.90
25154;DHT22;47555;51.038;6.280;2023-03-24T16:14:28;10.00;99.90
25154;DHT22;47555;51.038;6.280;2023-03-24T16:16:56;9.90;99.90
25154;DHT22;47555;51.038;6.280;2023-03-24T16:19:22;9.90;99.90
25154;DHT22;47555;51.038;6.280;2023-03-24T16:21:48;9.90;99.90
25154;DHT22;47555;51.038;6.280;2023-03-24T16:24:14;9.90;99.90
25154;DHT22;47555;51.038;6.280;2023-03-24T16:26:39;10.00;99.90
25154;DHT22;47555;51.038;6.280;2023-03-24T16:31:44;10.20;99.90
25154;DHT22;47555;51.038;6.280;2023-03-24T16:34:13;10.30;99.90
25154;DHT22;47555;51.038;6.280;2023-03-24T16:36:39;10.30;99.90
25154;DHT22;47555;51.038;6.280;2023-03-24T16:39:12;10.40;99.90
25154;DHT22;47555;51.038;6.280;2023-03-24T16:41:38;10.50;99.90
25154;DHT22;47555;51.038;6.280;2023-03-24T16:44:03;10.70;99.90
25154;DHT22;47555;51.038;6.280;2023-03-24T16:46:30;10.70;99.90
25154;DHT22;47555;51.038;6.280;2023-03-24T16:48:57;10.70;99.90
25154;DHT22;47555;51.038;6.280;2023-03-24T16:51:22;10.70;99.90
25154;DHT22;47555;51.038;6.280;2023-03-24T16:53:48;10.70;99.90
25154;DHT22;47555;51.038;6.280;2023-03-24T16:56:17;10.80;99.90
25154;DHT22;47555;51.038;6.280;2023-03-24T16:58:46;10.80;99.90
25154;DHT22;47555;51.038;6.280;2023-03-24T17:03:54;10.80;99.90
25154;DHT22;47555;51.038;6.280;2023-03-24T17:06:21;10.80;99.90
25154;DHT22;47555;51.038;6.280;2023-03-24T17:08:47;10.70;99.90
25154;DHT22;47555;51.038;6.280;2023-03-24T17:11:19;10.70;99.90
25154;DHT22;47555;51.038;6.280;2023-03-24T17:13:48;10.70;99.90
25154;DHT22;47555;51.038;6.280;2023-03-24T17:16:14;10.60;99.90
25154;DHT22;47555;51.038;6.280;2023-03-24T17:18:40;10.60;99.90
25154;DHT22;47555;51.038;6.280;2023-03-24T17:21:12;10.60;99.90
25154;DHT22;47555;51.038;6.280;2023-03-24T17:23:40;10.50;99.90
25154;DHT22;47555;51.038;6.280;2023-03-24T17:26:05;10.50;99.90
25154;DHT22;47555;51.038;6.280;2023-03-24T17:28:31;10.50;99.90
25154;DHT22;47555;51.038;6.280;2023-03-24T17:30:56;10.40;99.90
25154;DHT22;47555;51.038;6.280;2023-03-24T17:33:22;10.50;99.90
25154;DHT22;47555;51.038;6.280;2023-03-24T17:35:47;10.40;99.90
25154;DHT22;47555;51.038;6.280;2023-03-24T17:38:16;10.40;99.70
25154;DHT22;47555;51.038;6.280;2023-03-24T17:40:42;10.50;99.50
25154;DHT22;47555;51.038;6.280;2023-03-24T17:43:07;10.40;99.60
25154;DHT22;47555;51.038;6.280;2023-03-24T17:45:33;10.40;99.90
25154;DHT22;47555;51.038;6.280;2023-03-24T17:47:58;10.40;99.90
25154;DHT22;47555;51.038;6.280;2023-03-24T17:50:25;10.30;99.90
25154;DHT22;47555;51.038;6.280;2023-03-24T17:52:50;10.40;99.90
25154;DHT22;47555;51.038;6.280;2023-03-24T17:55:16;10.30;99.90
25154;DHT22;47555;51.038;6.280;2023-03-24T17:57:42;10.40;99.90
25154;DHT22;47555;51.038;6.280;2023-03-24T18:00:09;10.30;99.60
25154;DHT22;47555;51.038;6.280;2023-03-24T18:02:37;10.30;99.00
25154;DHT22;47555;51.038;6.280;2023-03-24T18:05:03;10.30;99.00
25154;DHT22;47555;51.038;6.280;2023-03-24T18:07:28;10.30;98.60
25154;DHT22;47555;51.038;6.280;2023-03-24T18:09:54;10.20;97.80
25154;DHT22;47555;51.038;6.280;2023-03-24T18:12:19;10.30;97.50
25154;DHT22;47555;51.038;6.280;2023-03-24T18:14:45;10.20;97.10
25154;DHT22;47555;51.038;6.280;2023-03-24T18:17:11;10.20;97.00
25154;DHT22;47555;51.038;6.280;2023-03-24T18:19:37;10.30;96.60